sensor_id;sensor_type;location;lat;lon;timestamp;P1;durP1;ratioP1;P2;durP2;ratioP2
22417;SDS011;11376;50.932;4.442;2022-10-31T00:00:41;10.88;;;4.75;;
22417;SDS011;11376;50.932;4.442;2022-10-31T00:03:06;13.93;;;5.15;;
22417;SDS011;11376;50.932;4.442;2022-10-31T00:05:32;11.05;;;4.57;;
22417;SDS011;11376;50.932;4.442;2022-10-31T00:07:57;10.35;;;4.28;;
22417;SDS011;11376;50.932;4.442;2022-10-31T00:10:23;14.20;;;4.57;;
22417;SDS011;11376;50.932;4.442;2022-10-31T00:12:49;9.10;;;4.25;;
22417;SDS011;11376;50.932;4.442;2022-10-31T00:15:14;10.52;;;4.60;;
22417;SDS011;11376;50.932;4.442;2022-10-31T00:17:40;8.80;;;4.25;;
22417;SDS011;11376;50.932;4.442;2022-10-31T00:20:06;11.75;;;4.80;;
22417;SDS011;11376;50.932;4.442;2022-10-31T00:22:31;10.90;;;4.45;;
22417;SDS011;11376;50.932;4.442;2022-10-31T00:24:57;10.15;;;4.43;;
22417;SDS011;11376;50.932;4.442;2022-10-31T00:27:22;9.52;;;4.20;;
22417;SDS011;11376;50.932;4.442;2022-10-31T00:29:48;9.63;;;4.50;;
22417;SDS011;11376;50.932;4.442;2022-10-31T00:32:14;10.38;;;3.78;;
22417;SDS011;11376;50.932;4.442;2022-10-31T00:34:39;10.57;;;4.18;;
22417;SDS011;11376;50.932;4.442;2022-10-31T00:37:05;10.63;;;4.30;;
22417;SDS011;11376;50.932;4.442;2022-10-31T00:39:30;11.27;;;4.60;;
22417;SDS011;11376;50.932;4.442;2022-10-31T00:41:56;9.13;;;3.88;;
22417;SDS011;11376;50.932;4.442;2022-10-31T00:44:21;10.43;;;4.35;;
22417;SDS011;11376;50.932;4.442;2022-10-31T00:46:47;7.63;;;4.20;;
22417;SDS011;11376;50.932;4.442;2022-10-31T00:49:12;13.05;;;4.68;;
22417;SDS011;11376;50.932;4.442;2022-10-31T00:51:38;8.68;;;4.38;;
22417;SDS011;11376;50.932;4.442;2022-10-31T00:54:03;8.32;;;4.40;;
22417;SDS011;11376;50.932;4.442;2022-10-31T00:56:29;11.13;;;4.32;;
22417;SDS011;11376;50.932;4.442;2022-10-31T00:58:56;11.75;;;4.95;;
22417;SDS011;11376;50.932;4.442;2022-10-31T01:01:22;10.68;;;4.10;;
22417;SDS011;11376;50.932;4.442;2022-10-31T01:03:47;9.18;;;4.20;;
22417;SDS011;11376;50.932;4.442;2022-10-31T01:06:13;10.30;;;4.97;;
22417;SDS011;11376;50.932;4.442;2022-10-31T01:08:39;10.53;;;4.40;;
22417;SDS011;11376;50.932;4.442;2022-10-31T01:13:36;11.50;;;5.00;;
22417;SDS011;11376;50.932;4.442;2022-10-31T01:16:02;10.05;;;4.90;;
22417;SDS011;11376;50.932;4.442;2022-10-31T01:18:29;11.83;;;5.10;;
22417;SDS011;11376;50.932;4.442;2022-10-31T01:21:05;8.83;;;4.60;;
22417;SDS011;11376;50.932;4.442;2022-10-31T01:23:33;9.77;;;4.77;;
22417;SDS011;11376;50.932;4.442;2022-10-31T01:26:03;9.90;;;4.80;;
22417;SDS011;11376;50.932;4.442;2022-10-31T01:28:32;10.23;;;4.73;;
22417;SDS011;11376;50.932;4.442;2022-10-31T01:31:02;10.50;;;4.90;;
22417;SDS011;11376;50.932;4.442;2022-10-31T01:33:32;10.43;;;4.47;;
22417;SDS011;11376;50.932;4.442;2022-10-31T01:35:58;10.60;;;5.10;;
22417;SDS011;11376;50.932;4.442;2022-10-31T01:38:24;10.70;;;5.27;;
22417;SDS011;11376;50.932;4.442;2022-10-31T01:40:50;11.73;;;5.30;;
22417;SDS011;11376;50.932;4.442;2022-10-31T01:43:15;11.50;;;5.03;;
22417;SDS011;11376;50.932;4.442;2022-10-31T01:45:42;11.23;;;5.23;;
22417;SDS011;11376;50.932;4.442;2022-10-31T01:48:12;11.10;;;4.40;;
22417;SDS011;11376;50.932;4.442;2022-10-31T01:50:40;10.93;;;4.83;;
22417;SDS011;11376;50.932;4.442;2022-10-31T01:53:09;11.83;;;4.90;;
22417;SDS011;11376;50.932;4.442;2022-10-31T01:55:38;12.23;;;4.90;;
22417;SDS011;11376;50.932;4.442;2022-10-31T01:58:17;11.07;;;4.30;;
22417;SDS011;11376;50.932;4.442;2022-10-31T02:00:46;10.97;;;5.17;;
22417;SDS011;11376;50.932;4.442;2022-10-31T02:03:16;11.43;;;5.40;;
22417;SDS011;11376;50.932;4.442;2022-10-31T02:05:43;10.33;;;5.07;;
22417;SDS011;11376;50.932;4.442;2022-10-31T02:08:20;12.03;;;5.20;;
22417;SDS011;11376;50.932;4.442;2022-10-31T02:10:54;9.67;;;5.00;;
22417;SDS011;11376;50.932;4.442;2022-10-31T02:13:21;10.23;;;4.30;;
22417;SDS011;11376;50.932;4.442;2022-10-31T02:15:52;9.53;;;5.07;;
22417;SDS011;11376;50.932;4.442;2022-10-31T02:18:20;12.37;;;4.97;;
22417;SDS011;11376;50.932;4.442;2022-10-31T02:20:55;11.77;;;5.23;;
22417;SDS011;11376;50.932;4.442;2022-10-31T02:29:11;10.47;;;4.63;;
22417;SDS011;11376;50.932;4.442;2022-10-31T02:31:51;10.90;;;4.90;;
22417;SDS011;11376;50.932;4.442;2022-10-31T02:34:35;10.57;;;4.37;;
22417;SDS011;11376;50.932;4.442;2022-10-31T02:37:24;10.73;;;4.90;;
22417;SDS011;11376;50.932;4.442;2022-10-31T02:43:08;11.70;;;4.97;;
22417;SDS011;11376;50.932;4.442;2022-10-31T02:45:50;12.07;;;4.77;;
22417;SDS011;11376;50.932;4.442;2022-10-31T02:48:24;11.07;;;4.83;;
22417;SDS011;11376;50.932;4.442;2022-10-31T02:50:55;13.67;;;5.20;;
22417;SDS011;11376;50.932;4.442;2022-10-31T02:53:24;10.47;;;4.60;;
22417;SDS011;11376;50.932;4.442;2022-10-31T02:55:51;15.30;;;5.30;;
22417;SDS011;11376;50.932;4.442;2022-10-31T02:58:23;10.30;;;4.93;;
22417;SDS011;11376;50.932;4.442;2022-10-31T03:00:56;10.90;;;4.63;;
22417;SDS011;11376;50.932;4.442;2022-10-31T03:03:28;10.87;;;4.87;;
22417;SDS011;11376;50.932;4.442;2022-10-31T03:06:33;9.57;;;5.13;;
22417;SDS011;11376;50.932;4.442;2022-10-31T03:09:20;12.40;;;4.87;;
22417;SDS011;11376;50.932;4.442;2022-10-31T03:14:39;11.70;;;5.23;;
22417;SDS011;11376;50.932;4.442;2022-10-31T03:17:09;9.60;;;4.87;;
22417;SDS011;11376;50.932;4.442;2022-10-31T03:19:45;13.63;;;5.60;;
22417;SDS011;11376;50.932;4.442;2022-10-31T03:24:42;12.37;;;5.10;;
22417;SDS011;11376;50.932;4.442;2022-10-31T03:27:09;11.50;;;5.10;;
22417;SDS011;11376;50.932;4.442;2022-10-31T03:29:38;11.00;;;4.90;;
22417;SDS011;11376;50.932;4.442;2022-10-31T03:35:02;10.80;;;4.47;;
22417;SDS011;11376;50.932;4.442;2022-10-31T03:37:32;13.30;;;5.20;;
22417;SDS011;11376;50.932;4.442;2022-10-31T03:40:00;10.67;;;5.00;;
22417;SDS011;11376;50.932;4.442;2022-10-31T03:42:28;11.03;;;5.07;;
22417;SDS011;11376;50.932;4.442;2022-10-31T03:44:58;11.10;;;5.03;;
22417;SDS011;11376;50.932;4.442;2022-10-31T03:47:30;10.20;;;5.20;;
22417;SDS011;11376;50.932;4.442;2022-10-31T03:49:56;11.10;;;5.77;;
22417;SDS011;11376;50.932;4.442;2022-10-31T03:52:27;10.80;;;5.43;;
22417;SDS011;11376;50.932;4.442;2022-10-31T04:00:11;10.47;;;4.70;;
22417;SDS011;11376;50.932;4.442;2022-10-31T04:02:40;10.03;;;5.00;;
22417;SDS011;11376;50.932;4.442;2022-10-31T04:05:10;10.70;;;4.97;;
22417;SDS011;11376;50.932;4.442;2022-10-31T04:07:37;11.80;;;4.83;;
22417;SDS011;11376;50.932;4.442;2022-10-31T04:10:09;11.67;;;4.80;;
22417;SDS011;11376;50.932;4.442;2022-10-31T04:12:38;10.23;;;4.70;;
22417;SDS011;11376;50.932;4.442;2022-10-31T04:15:05;11.77;;;4.80;;
22417;SDS011;11376;50.932;4.442;2022-10-31T04:17:33;8.77;;;4.47;;
22417;SDS011;11376;50.932;4.442;2022-10-31T04:20:02;9.63;;;4.87;;
22417;SDS011;11376;50.932;4.442;2022-10-31T04:22:28;11.90;;;4.90;;
22417;SDS011;11376;50.932;4.442;2022-10-31T04:24:54;9.37;;;4.70;;
22417;SDS011;11376;50.932;4.442;2022-10-31T04:27:19;9.33;;;4.33;;
22417;SDS011;11376;50.932;4.442;2022-10-31T04:29:45;8.80;;;4.37;;
22417;SDS011;11376;50.932;4.442;2022-10-31T04:32:10;11.10;;;4.50;;
22417;SDS011;11376;50.932;4.442;2022-10-31T04:34:36;9.83;;;4.40;;
22417;SDS011;11376;50.932;4.442;2022-10-31T04:37:01;11.83;;;4.93;;
22417;SDS011;11376;50.932;4.442;2022-10-31T04:39:27;8.63;;;4.70;;
22417;SDS011;11376;50.932;4.442;2022-10-31T04:41:52;10.30;;;4.13;;
22417;SDS011;11376;50.932;4.442;2022-10-31T04:44:18;12.27;;;5.47;;
22417;SDS011;11376;50.932;4.442;2022-10-31T04:46:43;10.83;;;5.07;;
22417;SDS011;11376;50.932;4.442;2022-10-31T04:49:09;12.80;;;5.47;;
22417;SDS011;11376;50.932;4.442;2022-10-31T04:51:34;13.03;;;5.43;;
22417;SDS011;11376;50.932;4.442;2022-10-31T04:54:00;9.73;;;5.30;;
22417;SDS011;11376;50.932;4.442;2022-10-31T04:56:26;11.93;;;5.47;;
22417;SDS011;11376;50.932;4.442;2022-10-31T04:58:51;10.80;;;5.00;;
22417;SDS011;11376;50.932;4.442;2022-10-31T05:01:17;13.40;;;5.43;;
22417;SDS011;11376;50.932;4.442;2022-10-31T05:03:43;10.77;;;5.83;;
22417;SDS011;11376;50.932;4.442;2022-10-31T05:06:09;13.07;;;5.90;;
22417;SDS011;11376;50.932;4.442;2022-10-31T05:08:34;12.63;;;5.90;;
22417;SDS011;11376;50.932;4.442;2022-10-31T05:11:03;14.13;;;5.90;;
22417;SDS011;11376;50.932;4.442;2022-10-31T05:13:29;14.27;;;6.27;;
22417;SDS011;11376;50.932;4.442;2022-10-31T05:15:55;15.30;;;6.17;;
22417;SDS011;11376;50.932;4.442;2022-10-31T05:18:21;18.07;;;7.20;;
22417;SDS011;11376;50.932;4.442;2022-10-31T05:20:46;16.73;;;7.93;;
22417;SDS011;11376;50.932;4.442;2022-10-31T05:23:12;17.97;;;7.57;;
22417;SDS011;11376;50.932;4.442;2022-10-31T05:25:39;16.87;;;6.90;;
22417;SDS011;11376;50.932;4.442;2022-10-31T05:28:05;15.43;;;7.60;;
22417;SDS011;11376;50.932;4.442;2022-10-31T05:30:31;15.23;;;7.10;;
22417;SDS011;11376;50.932;4.442;2022-10-31T05:32:57;14.47;;;7.40;;
22417;SDS011;11376;50.932;4.442;2022-10-31T05:35:24;15.60;;;6.83;;
22417;SDS011;11376;50.932;4.442;2022-10-31T05:37:52;15.60;;;6.83;;
22417;SDS011;11376;50.932;4.442;2022-10-31T05:40:19;13.57;;;6.70;;
22417;SDS011;11376;50.932;4.442;2022-10-31T05:42:45;15.17;;;7.37;;
22417;SDS011;11376;50.932;4.442;2022-10-31T05:45:12;15.60;;;7.27;;
22417;SDS011;11376;50.932;4.442;2022-10-31T05:47:39;13.10;;;6.70;;
22417;SDS011;11376;50.932;4.442;2022-10-31T05:50:05;12.80;;;6.33;;
22417;SDS011;11376;50.932;4.442;2022-10-31T05:52:31;14.50;;;6.60;;
22417;SDS011;11376;50.932;4.442;2022-10-31T05:54:57;13.23;;;6.60;;
22417;SDS011;11376;50.932;4.442;2022-10-31T05:57:23;14.10;;;6.53;;
22417;SDS011;11376;50.932;4.442;2022-10-31T05:59:48;12.17;;;6.77;;
22417;SDS011;11376;50.932;4.442;2022-10-31T06:02:17;19.93;;;7.63;;
22417;SDS011;11376;50.932;4.442;2022-10-31T06:04:46;15.80;;;7.37;;
22417;SDS011;11376;50.932;4.442;2022-10-31T06:07:12;16.03;;;7.30;;
22417;SDS011;11376;50.932;4.442;2022-10-31T06:09:37;17.20;;;7.77;;
22417;SDS011;11376;50.932;4.442;2022-10-31T06:12:03;16.83;;;8.03;;
22417;SDS011;11376;50.932;4.442;2022-10-31T06:14:28;17.97;;;7.53;;
22417;SDS011;11376;50.932;4.442;2022-10-31T06:16:54;18.87;;;8.03;;
22417;SDS011;11376;50.932;4.442;2022-10-31T06:19:20;20.17;;;9.20;;
22417;SDS011;11376;50.932;4.442;2022-10-31T06:21:46;16.03;;;8.33;;
22417;SDS011;11376;50.932;4.442;2022-10-31T06:24:12;17.10;;;8.23;;
22417;SDS011;11376;50.932;4.442;2022-10-31T06:26:38;17.30;;;7.83;;
22417;SDS011;11376;50.932;4.442;2022-10-31T06:29:03;20.17;;;8.67;;
22417;SDS011;11376;50.932;4.442;2022-10-31T06:31:29;16.53;;;7.67;;
22417;SDS011;11376;50.932;4.442;2022-10-31T06:33:55;17.83;;;8.63;;
22417;SDS011;11376;50.932;4.442;2022-10-31T06:36:20;17.87;;;8.33;;
22417;SDS011;11376;50.932;4.442;2022-10-31T06:38:46;19.93;;;8.27;;
22417;SDS011;11376;50.932;4.442;2022-10-31T06:41:12;17.07;;;8.43;;
22417;SDS011;11376;50.932;4.442;2022-10-31T06:43:37;18.20;;;8.67;;
22417;SDS011;11376;50.932;4.442;2022-10-31T06:46:03;22.10;;;8.57;;
22417;SDS011;11376;50.932;4.442;2022-10-31T06:48:29;17.20;;;8.13;;
22417;SDS011;11376;50.932;4.442;2022-10-31T06:51:01;17.00;;;8.27;;
22417;SDS011;11376;50.932;4.442;2022-10-31T06:53:27;19.30;;;7.95;;
22417;SDS011;11376;50.932;4.442;2022-10-31T06:55:56;19.37;;;8.30;;
22417;SDS011;11376;50.932;4.442;2022-10-31T06:58:22;18.70;;;8.80;;
22417;SDS011;11376;50.932;4.442;2022-10-31T07:00:51;22.17;;;7.93;;
22417;SDS011;11376;50.932;4.442;2022-10-31T07:03:16;15.43;;;7.87;;
22417;SDS011;11376;50.932;4.442;2022-10-31T07:05:42;15.45;;;7.72;;
22417;SDS011;11376;50.932;4.442;2022-10-31T07:08:12;24.27;;;9.00;;
22417;SDS011;11376;50.932;4.442;2022-10-31T07:10:39;22.27;;;9.03;;
22417;SDS011;11376;50.932;4.442;2022-10-31T07:13:06;17.05;;;8.05;;
22417;SDS011;11376;50.932;4.442;2022-10-31T07:15:39;22.58;;;7.65;;
22417;SDS011;11376;50.932;4.442;2022-10-31T07:18:06;16.70;;;7.83;;
22417;SDS011;11376;50.932;4.442;2022-10-31T07:20:33;18.50;;;8.05;;
22417;SDS011;11376;50.932;4.442;2022-10-31T07:22:59;16.90;;;7.90;;
22417;SDS011;11376;50.932;4.442;2022-10-31T07:25:25;16.50;;;7.95;;
22417;SDS011;11376;50.932;4.442;2022-10-31T07:27:51;16.95;;;8.48;;
22417;SDS011;11376;50.932;4.442;2022-10-31T07:30:17;17.35;;;7.85;;
22417;SDS011;11376;50.932;4.442;2022-10-31T07:32:50;16.30;;;7.68;;
22417;SDS011;11376;50.932;4.442;2022-10-31T07:35:19;16.90;;;7.55;;
22417;SDS011;11376;50.932;4.442;2022-10-31T07:37:47;15.45;;;7.47;;
22417;SDS011;11376;50.932;4.442;2022-10-31T07:40:13;19.35;;;7.55;;
22417;SDS011;11376;50.932;4.442;2022-10-31T07:42:39;14.45;;;7.00;;
22417;SDS011;11376;50.932;4.442;2022-10-31T07:45:06;16.67;;;7.22;;
22417;SDS011;11376;50.932;4.442;2022-10-31T07:50:11;17.70;;;7.80;;
22417;SDS011;11376;50.932;4.442;2022-10-31T07:52:38;16.27;;;7.97;;
22417;SDS011;11376;50.932;4.442;2022-10-31T07:55:04;15.50;;;7.93;;
22417;SDS011;11376;50.932;4.442;2022-10-31T07:57:31;13.38;;;7.45;;
22417;SDS011;11376;50.932;4.442;2022-10-31T07:59:56;14.82;;;7.53;;
22417;SDS011;11376;50.932;4.442;2022-10-31T08:02:22;16.63;;;7.72;;
22417;SDS011;11376;50.932;4.442;2022-10-31T08:04:48;14.43;;;7.13;;
22417;SDS011;11376;50.932;4.442;2022-10-31T08:07:14;18.13;;;8.30;;
22417;SDS011;11376;50.932;4.442;2022-10-31T08:09:40;16.95;;;7.90;;
22417;SDS011;11376;50.932;4.442;2022-10-31T08:12:05;17.23;;;7.85;;
22417;SDS011;11376;50.932;4.442;2022-10-31T08:14:31;17.70;;;7.82;;
22417;SDS011;11376;50.932;4.442;2022-10-31T08:16:56;14.73;;;7.45;;
22417;SDS011;11376;50.932;4.442;2022-10-31T08:19:22;13.05;;;7.05;;
22417;SDS011;11376;50.932;4.442;2022-10-31T08:21:51;14.50;;;6.80;;
22417;SDS011;11376;50.932;4.442;2022-10-31T08:24:17;14.32;;;6.80;;
22417;SDS011;11376;50.932;4.442;2022-10-31T08:26:43;11.13;;;6.20;;
22417;SDS011;11376;50.932;4.442;2022-10-31T08:29:09;15.95;;;6.78;;
22417;SDS011;11376;50.932;4.442;2022-10-31T08:31:34;10.80;;;5.55;;
22417;SDS011;11376;50.932;4.442;2022-10-31T08:34:00;11.95;;;6.40;;
22417;SDS011;11376;50.932;4.442;2022-10-31T08:36:26;16.65;;;6.68;;
22417;SDS011;11376;50.932;4.442;2022-10-31T08:38:52;13.35;;;7.00;;
22417;SDS011;11376;50.932;4.442;2022-10-31T08:41:18;13.52;;;7.20;;
22417;SDS011;11376;50.932;4.442;2022-10-31T08:43:43;12.70;;;7.20;;
22417;SDS011;11376;50.932;4.442;2022-10-31T08:46:09;13.02;;;6.82;;
22417;SDS011;11376;50.932;4.442;2022-10-31T08:48:35;15.25;;;6.60;;
22417;SDS011;11376;50.932;4.442;2022-10-31T08:51:00;12.75;;;6.57;;
22417;SDS011;11376;50.932;4.442;2022-10-31T08:53:26;13.95;;;6.35;;
22417;SDS011;11376;50.932;4.442;2022-10-31T08:55:54;10.18;;;5.90;;
22417;SDS011;11376;50.932;4.442;2022-10-31T08:58:20;15.55;;;6.72;;
22417;SDS011;11376;50.932;4.442;2022-10-31T09:00:48;17.27;;;6.05;;
22417;SDS011;11376;50.932;4.442;2022-10-31T09:03:18;10.70;;;5.25;;
22417;SDS011;11376;50.932;4.442;2022-10-31T09:05:56;11.52;;;5.90;;
22417;SDS011;11376;50.932;4.442;2022-10-31T09:08:25;13.38;;;6.47;;
22417;SDS011;11376;50.932;4.442;2022-10-31T09:10:51;12.23;;;5.53;;
22417;SDS011;11376;50.932;4.442;2022-10-31T09:13:21;13.13;;;5.47;;
22417;SDS011;11376;50.932;4.442;2022-10-31T09:15:47;13.07;;;6.65;;
22417;SDS011;11376;50.932;4.442;2022-10-31T09:18:15;9.57;;;5.80;;
22417;SDS011;11376;50.932;4.442;2022-10-31T09:20:42;11.82;;;5.10;;
22417;SDS011;11376;50.932;4.442;2022-10-31T09:23:12;13.35;;;5.47;;
22417;SDS011;11376;50.932;4.442;2022-10-31T09:25:39;10.45;;;5.03;;
22417;SDS011;11376;50.932;4.442;2022-10-31T09:28:06;10.65;;;5.13;;
22417;SDS011;11376;50.932;4.442;2022-10-31T09:30:34;11.20;;;4.97;;
22417;SDS011;11376;50.932;4.442;2022-10-31T09:33:02;10.27;;;5.25;;
22417;SDS011;11376;50.932;4.442;2022-10-31T09:35:34;9.63;;;5.20;;
22417;SDS011;11376;50.932;4.442;2022-10-31T09:38:00;9.45;;;4.72;;
22417;SDS011;11376;50.932;4.442;2022-10-31T09:40:31;13.20;;;5.50;;
22417;SDS011;11376;50.932;4.442;2022-10-31T09:48:24;9.85;;;4.40;;
22417;SDS011;11376;50.932;4.442;2022-10-31T09:51:00;9.43;;;4.93;;
22417;SDS011;11376;50.932;4.442;2022-10-31T09:56:07;8.20;;;4.50;;
22417;SDS011;11376;50.932;4.442;2022-10-31T09:58:40;11.93;;;5.25;;
22417;SDS011;11376;50.932;4.442;2022-10-31T10:01:13;9.63;;;4.93;;
22417;SDS011;11376;50.932;4.442;2022-10-31T10:06:49;11.07;;;4.93;;
22417;SDS011;11376;50.932;4.442;2022-10-31T10:09:17;11.48;;;5.95;;
22417;SDS011;11376;50.932;4.442;2022-10-31T10:11:49;14.05;;;5.20;;
22417;SDS011;11376;50.932;4.442;2022-10-31T10:14:26;11.00;;;6.15;;
22417;SDS011;11376;50.932;4.442;2022-10-31T10:26:02;10.02;;;5.10;;
22417;SDS011;11376;50.932;4.442;2022-10-31T10:28:38;11.50;;;5.25;;
22417;SDS011;11376;50.932;4.442;2022-10-31T10:31:08;12.43;;;5.30;;
22417;SDS011;11376;50.932;4.442;2022-10-31T10:37:05;9.45;;;4.88;;
22417;SDS011;11376;50.932;4.442;2022-10-31T10:39:35;9.00;;;5.05;;
22417;SDS011;11376;50.932;4.442;2022-10-31T10:42:10;10.95;;;5.50;;
22417;SDS011;11376;50.932;4.442;2022-10-31T10:44:56;10.52;;;5.57;;
22417;SDS011;11376;50.932;4.442;2022-10-31T10:47:54;11.68;;;5.88;;
22417;SDS011;11376;50.932;4.442;2022-10-31T10:50:33;11.85;;;5.47;;
22417;SDS011;11376;50.932;4.442;2022-10-31T10:53:06;12.98;;;5.57;;
22417;SDS011;11376;50.932;4.442;2022-10-31T10:55:56;9.57;;;4.78;;
22417;SDS011;11376;50.932;4.442;2022-10-31T10:58:46;13.57;;;5.85;;
22417;SDS011;11376;50.932;4.442;2022-10-31T11:01:13;11.93;;;5.72;;
22417;SDS011;11376;50.932;4.442;2022-10-31T11:03:40;11.60;;;5.28;;
22417;SDS011;11376;50.932;4.442;2022-10-31T11:06:15;9.35;;;5.03;;
22417;SDS011;11376;50.932;4.442;2022-10-31T11:08:49;12.75;;;5.88;;
22417;SDS011;11376;50.932;4.442;2022-10-31T11:11:28;12.77;;;5.10;;
22417;SDS011;11376;50.932;4.442;2022-10-31T11:14:03;12.30;;;5.60;;
22417;SDS011;11376;50.932;4.442;2022-10-31T11:16:35;12.77;;;5.47;;
22417;SDS011;11376;50.932;4.442;2022-10-31T11:19:13;13.27;;;5.55;;
22417;SDS011;11376;50.932;4.442;2022-10-31T11:21:45;10.65;;;5.18;;
22417;SDS011;11376;50.932;4.442;2022-10-31T11:24:15;10.98;;;5.68;;
22417;SDS011;11376;50.932;4.442;2022-10-31T11:26:44;7.63;;;4.80;;
22417;SDS011;11376;50.932;4.442;2022-10-31T11:29:29;12.90;;;5.30;;
22417;SDS011;11376;50.932;4.442;2022-10-31T11:31:55;11.25;;;5.15;;
22417;SDS011;11376;50.932;4.442;2022-10-31T11:34:26;10.52;;;5.38;;
22417;SDS011;11376;50.932;4.442;2022-10-31T11:37:12;12.82;;;6.00;;
22417;SDS011;11376;50.932;4.442;2022-10-31T11:39:45;10.13;;;4.95;;
22417;SDS011;11376;50.932;4.442;2022-10-31T11:42:18;11.13;;;5.40;;
22417;SDS011;11376;50.932;4.442;2022-10-31T11:44:49;14.10;;;5.28;;
22417;SDS011;11376;50.932;4.442;2022-10-31T11:47:16;9.27;;;4.80;;
22417;SDS011;11376;50.932;4.442;2022-10-31T11:49:45;13.18;;;5.28;;
22417;SDS011;11376;50.932;4.442;2022-10-31T11:52:16;8.30;;;4.38;;
22417;SDS011;11376;50.932;4.442;2022-10-31T11:54:49;11.88;;;5.07;;
22417;SDS011;11376;50.932;4.442;2022-10-31T11:57:33;11.00;;;5.05;;
22417;SDS011;11376;50.932;4.442;2022-10-31T12:03:14;9.95;;;4.88;;
22417;SDS011;11376;50.932;4.442;2022-10-31T12:05:47;11.77;;;4.75;;
22417;SDS011;11376;50.932;4.442;2022-10-31T12:08:20;12.55;;;4.80;;
22417;SDS011;11376;50.932;4.442;2022-10-31T12:10:51;13.30;;;4.93;;
22417;SDS011;11376;50.932;4.442;2022-10-31T12:13:40;11.88;;;4.88;;
22417;SDS011;11376;50.932;4.442;2022-10-31T12:16:27;10.70;;;3.90;;
22417;SDS011;11376;50.932;4.442;2022-10-31T12:19:04;11.68;;;5.07;;
22417;SDS011;11376;50.932;4.442;2022-10-31T12:21:47;11.55;;;4.43;;
22417;SDS011;11376;50.932;4.442;2022-10-31T12:27:21;10.73;;;4.40;;
22417;SDS011;11376;50.932;4.442;2022-10-31T12:32:30;10.20;;;3.50;;
22417;SDS011;11376;50.932;4.442;2022-10-31T12:45:50;10.20;;;3.70;;
22417;SDS011;11376;50.932;4.442;2022-10-31T12:56:37;7.38;;;3.58;;
22417;SDS011;11376;50.932;4.442;2022-10-31T12:59:24;8.05;;;3.50;;
22417;SDS011;11376;50.932;4.442;2022-10-31T13:02:02;7.40;;;2.92;;
22417;SDS011;11376;50.932;4.442;2022-10-31T13:04:43;9.93;;;3.17;;
22417;SDS011;11376;50.932;4.442;2022-10-31T13:07:17;7.13;;;3.72;;
22417;SDS011;11376;50.932;4.442;2022-10-31T13:12:30;7.13;;;3.15;;
22417;SDS011;11376;50.932;4.442;2022-10-31T13:15:00;8.05;;;3.75;;
22417;SDS011;11376;50.932;4.442;2022-10-31T13:17:43;8.55;;;3.05;;
22417;SDS011;11376;50.932;4.442;2022-10-31T13:25:53;8.55;;;3.90;;
22417;SDS011;11376;50.932;4.442;2022-10-31T13:30:52;10.40;;;3.50;;
22417;SDS011;11376;50.932;4.442;2022-10-31T13:35:48;8.70;;;3.17;;
22417;SDS011;11376;50.932;4.442;2022-10-31T13:46:45;11.02;;;3.50;;
22417;SDS011;11376;50.932;4.442;2022-10-31T13:54:36;7.80;;;2.95;;
22417;SDS011;11376;50.932;4.442;2022-10-31T13:57:07;10.65;;;3.10;;
22417;SDS011;11376;50.932;4.442;2022-10-31T13:59:52;6.80;;;3.65;;
22417;SDS011;11376;50.932;4.442;2022-10-31T14:02:34;9.77;;;3.30;;
22417;SDS011;11376;50.932;4.442;2022-10-31T14:07:31;7.97;;;2.85;;
22417;SDS011;11376;50.932;4.442;2022-10-31T14:14:55;8.23;;;3.10;;
22417;SDS011;11376;50.932;4.442;2022-10-31T14:17:25;7.03;;;3.33;;
22417;SDS011;11376;50.932;4.442;2022-10-31T14:22:37;7.93;;;2.75;;
22417;SDS011;11376;50.932;4.442;2022-10-31T14:27:52;8.05;;;2.80;;
22417;SDS011;11376;50.932;4.442;2022-10-31T14:30:27;6.60;;;2.58;;
22417;SDS011;11376;50.932;4.442;2022-10-31T14:32:58;7.55;;;2.50;;
22417;SDS011;11376;50.932;4.442;2022-10-31T14:35:29;9.05;;;3.10;;
22417;SDS011;11376;50.932;4.442;2022-10-31T14:38:20;8.93;;;3.05;;
22417;SDS011;11376;50.932;4.442;2022-10-31T14:52:36;8.70;;;3.17;;
22417;SDS011;11376;50.932;4.442;2022-10-31T14:55:04;8.73;;;3.08;;
22417;SDS011;11376;50.932;4.442;2022-10-31T14:57:35;12.25;;;3.63;;
22417;SDS011;11376;50.932;4.442;2022-10-31T15:00:04;7.60;;;3.17;;
22417;SDS011;11376;50.932;4.442;2022-10-31T15:05:45;12.63;;;3.53;;
22417;SDS011;11376;50.932;4.442;2022-10-31T15:10:55;9.48;;;3.20;;
22417;SDS011;11376;50.932;4.442;2022-10-31T15:13:21;8.23;;;3.00;;
22417;SDS011;11376;50.932;4.442;2022-10-31T15:15:48;11.35;;;3.47;;
22417;SDS011;11376;50.932;4.442;2022-10-31T15:18:16;8.98;;;3.35;;
22417;SDS011;11376;50.932;4.442;2022-10-31T15:20:45;9.73;;;3.25;;
22417;SDS011;11376;50.932;4.442;2022-10-31T15:23:16;6.53;;;3.58;;
22417;SDS011;11376;50.932;4.442;2022-10-31T15:25:46;9.57;;;3.70;;
22417;SDS011;11376;50.932;4.442;2022-10-31T15:28:12;11.40;;;3.80;;
22417;SDS011;11376;50.932;4.442;2022-10-31T15:30:54;9.65;;;3.80;;
22417;SDS011;11376;50.932;4.442;2022-10-31T15:33:22;12.80;;;3.85;;
22417;SDS011;11376;50.932;4.442;2022-10-31T15:35:57;12.70;;;4.18;;
22417;SDS011;11376;50.932;4.442;2022-10-31T15:38:24;11.65;;;3.85;;
22417;SDS011;11376;50.932;4.442;2022-10-31T15:40:55;9.73;;;3.97;;
22417;SDS011;11376;50.932;4.442;2022-10-31T15:43:43;9.98;;;3.72;;
22417;SDS011;11376;50.932;4.442;2022-10-31T15:46:10;9.80;;;3.70;;
22417;SDS011;11376;50.932;4.442;2022-10-31T15:48:36;8.55;;;3.90;;
22417;SDS011;11376;50.932;4.442;2022-10-31T15:51:03;12.95;;;4.30;;
22417;SDS011;11376;50.932;4.442;2022-10-31T15:56:01;13.68;;;4.18;;
22417;SDS011;11376;50.932;4.442;2022-10-31T15:58:29;9.55;;;4.22;;
22417;SDS011;11376;50.932;4.442;2022-10-31T16:01:02;13.48;;;5.10;;
22417;SDS011;11376;50.932;4.442;2022-10-31T16:03:30;12.00;;;4.60;;
22417;SDS011;11376;50.932;4.442;2022-10-31T16:05:58;10.77;;;4.07;;
22417;SDS011;11376;50.932;4.442;2022-10-31T16:10:55;12.48;;;4.53;;
22417;SDS011;11376;50.932;4.442;2022-10-31T16:13:26;9.70;;;5.10;;
22417;SDS011;11376;50.932;4.442;2022-10-31T16:15:59;9.43;;;4.93;;
22417;SDS011;11376;50.932;4.442;2022-10-31T16:18:28;11.57;;;4.80;;
22417;SDS011;11376;50.932;4.442;2022-10-31T16:20:59;9.60;;;4.57;;
22417;SDS011;11376;50.932;4.442;2022-10-31T16:23:25;12.50;;;5.03;;
22417;SDS011;11376;50.932;4.442;2022-10-31T16:25:52;14.10;;;5.00;;
22417;SDS011;11376;50.932;4.442;2022-10-31T16:28:27;10.65;;;5.25;;
22417;SDS011;11376;50.932;4.442;2022-10-31T16:30:56;11.32;;;4.97;;
22417;SDS011;11376;50.932;4.442;2022-10-31T16:36:13;15.73;;;5.30;;
22417;SDS011;11376;50.932;4.442;2022-10-31T16:38:53;12.50;;;5.20;;
22417;SDS011;11376;50.932;4.442;2022-10-31T16:41:18;15.27;;;6.10;;
22417;SDS011;11376;50.932;4.442;2022-10-31T16:43:45;17.73;;;5.30;;
22417;SDS011;11376;50.932;4.442;2022-10-31T16:46:12;13.95;;;5.95;;
22417;SDS011;11376;50.932;4.442;2022-10-31T16:48:40;16.52;;;5.63;;
22417;SDS011;11376;50.932;4.442;2022-10-31T16:51:06;13.60;;;6.32;;
22417;SDS011;11376;50.932;4.442;2022-10-31T16:53:32;14.25;;;6.18;;
22417;SDS011;11376;50.932;4.442;2022-10-31T16:55:58;14.18;;;5.93;;
22417;SDS011;11376;50.932;4.442;2022-10-31T16:58:30;14.88;;;6.00;;
22417;SDS011;11376;50.932;4.442;2022-10-31T17:00:58;14.65;;;6.00;;
22417;SDS011;11376;50.932;4.442;2022-10-31T17:03:24;14.88;;;6.22;;
22417;SDS011;11376;50.932;4.442;2022-10-31T17:05:50;15.07;;;5.90;;
22417;SDS011;11376;50.932;4.442;2022-10-31T17:08:16;17.58;;;6.15;;
22417;SDS011;11376;50.932;4.442;2022-10-31T17:10:41;13.73;;;6.13;;
22417;SDS011;11376;50.932;4.442;2022-10-31T17:13:13;11.38;;;5.80;;
22417;SDS011;11376;50.932;4.442;2022-10-31T17:15:47;13.40;;;6.00;;